Roxbury, Pennsylvania
Current Conditions -  °F | °C
As of 3:17 AM on Monday 24 Nov 2014 (Local Time) from KHGR Reporting Station
Light Rain Light Rain  
Wind Chill: 58°   Ceiling: 1300
Heat Index: 58°   Visibility: 8mi
Dew Point: 56°   Wind: 16mph
Humidity: 93%   Direction: 160°SSE
Pressure: 29.59"   Gusts: 23mph
Location:  40.11°N, 77.66°W
Report Text: KHGR 240817Z AUTO 16014G20KT 8SM -RA SCT007 BKN013 OVC031 14/13 A2959 RMK AO2 RAB17 PRESFR P0000 T01440133
Loading
Personal Weather Stations






























Interactive Weather Map New forecast layout! Learn more

10-Day Weather Forecast

Advertisements
Track Severe Weather on mobile